Time;durP1;ratioP1;P1;durP2;ratioP2;P2;SDS_P1;SDS_P2;PMS_P1;PMS_P2;Temp;Humidity;BMP_temperature;BMP_pressure;BME280_temperature;BME280_humidity;BME280_pressure;Samples;Min_cycle;Max_cycle;Signal;HPM_P1;HPM_P2
2022/01/23 00:00:00;;;;;;;;;;;;;;;;;;5040228;28;19975;-67
2022/01/23 00:02:28;;;;;;;;;;;;;;;;;;5038988;28;20350;-68
2022/01/23 00:04:55;;;;;;;;;;;;;;;;;;5037546;28;19975;-68
2022/01/23 00:07:21;;;;;;;;;;;;;;;;;;5040522;28;19921;-67
2022/01/23 00:09:48;;;;;;;;;;;;;;;;;;5047347;28;19921;-68
2022/01/23 00:12:18;;;;;;;;;;;;;;;;;;5045733;28;19921;-67
2022/01/23 00:17:35;;;;;;;;;;;;;;;;;;5047127;28;19920;-68
2022/01/23 00:20:07;;;;;;;;;;;;;;;;;;5041940;28;19920;-68
2022/01/23 00:22:55;;;;;;;;;;;;;;;;;;5043214;28;19928;-67
2022/01/23 00:30:54;;;;;;;;;;;;;;;;;;5045740;28;19925;-69
2022/01/23 00:33:23;;;;;;;;;;;;;;;;;;5045559;28;19980;-67
2022/01/23 00:35:49;;;;;;;;;;;;;;;;;;5043027;28;20379;-68
2022/01/23 00:38:16;;;;;;;;;;;;;;;;;;5043632;28;19929;-68
2022/01/23 00:40:43;;;;;;;;;;;;;;;;;;5045248;28;19982;-68
2022/01/23 00:43:17;;;;;;;;;;;;;;;;;;5041387;28;19967;-68
2022/01/23 00:45:47;;;;;;;;;;;;;;;;;;5044523;28;19982;-69
2022/01/23 00:48:16;;;;;;;;;;;;;;;;;;5046155;28;19925;-68
2022/01/23 00:50:43;;;;;;;;;;;;;;;;;;5044134;28;19929;-68
2022/01/23 00:53:10;;;;;;;;;;;;;;;;;;5046618;28;19920;-68
2022/01/23 00:55:37;;;;;;;;;;;;;;;;;;5044737;28;19921;-68
2022/01/23 00:58:04;;;;;;;;;;;;;;;;;;5035700;28;19920;-68
2022/01/23 01:00:31;;;;;;;;;;;;;;;;;;5044177;28;19921;-68
2022/01/23 01:03:01;;;;;;;;;;;;;;;;;;5046201;28;20011;-68
2022/01/23 01:05:28;;;;;;;;;;;;;;;;;;5041977;28;19925;-68
2022/01/23 01:07:58;;;;;;;;;;;;;;;;;;5045961;28;19946;-68
2022/01/23 01:10:55;;;;;;;;;;;;;;;;;;5043225;28;19975;-69
2022/01/23 01:13:15;;;;;;;;;;;;;;;;;;5041868;28;19925;-68
2022/01/23 01:15:58;;;;;;;;;;;;;;;;;;5045876;28;19975;-69
2022/01/23 01:32:30;;;;;;;;;;;;;;;;;;5044203;28;20383;-68
2022/01/23 01:35:06;;;;;;;;;;;;;;;;;;5040680;28;20453;-69
2022/01/23 01:37:32;;;;;;;;;;;;;;;;;;5043416;28;19935;-69
2022/01/23 01:39:59;;;;;;;;;;;;;;;;;;5044438;28;19920;-68
2022/01/23 01:42:25;;;;;;;;;;;;;;;;;;5045089;28;19990;-69
2022/01/23 01:44:52;;;;;;;;;;;;;;;;;;5039343;28;19921;-69
2022/01/23 01:47:19;;;;;;;;;;;;;;;;;;5045484;28;19929;-69
2022/01/23 01:49:46;;;;;;;;;;;;;;;;;;5040177;28;20342;-68
2022/01/23 01:52:13;;;;;;;;;;;;;;;;;;5046026;28;19920;-68
2022/01/23 01:54:39;;;;;;;;;;;;;;;;;;5042184;28;19925;-68
2022/01/23 01:57:08;;;;;;;;;;;;;;;;;;5042089;28;19920;-68
2022/01/23 01:59:49;;;;;;;;;;;;;;;;;;5040722;28;19925;-68
2022/01/23 02:10:32;;;;;;;;;;;;;;;;;;5045419;28;19929;-68
2022/01/23 02:13:07;;;;;;;;;;;;;;;;;;5040806;28;19952;-68
2022/01/23 02:16:00;;;;;;;;;;;;;;;;;;5039808;28;20426;-69
2022/01/23 02:22:20;;;;;;;;;;;;;;;;;;5039174;28;20287;-69
2022/01/23 02:24:37;;;;;;;;;;;;;;;;;;4967924;28;19926;-69
2022/01/23 02:52:18;;;;;;;;;;;;;;;;;;5043552;28;19967;-69
2022/01/23 02:57:33;;;;;;;;;;;;;;;;;;5043552;28;19929;-68
2022/01/23 02:59:59;;;;;;;;;;;;;;;;;;5036639;28;19990;-68
2022/01/23 03:02:37;;;;;;;;;;;;;;;;;;5039951;28;19921;-69
2022/01/23 03:05:05;;;;;;;;;;;;;;;;;;5042456;28;20401;-69
2022/01/23 03:10:09;;;;;;;;;;;;;;;;;;5038629;28;20338;-69
2022/01/23 03:29:26;;;;;;;;;;;;;;;;;;5004647;28;19975;-69
2022/01/23 03:34:20;;;;;;;;;;;;;;;;;;5042294;28;19925;-70
2022/01/23 03:36:46;;;;;;;;;;;;;;;;;;5043381;28;20334;-69
2022/01/23 03:39:13;;;;;;;;;;;;;;;;;;5040935;28;19921;-69
2022/01/23 03:41:40;;;;;;;;;;;;;;;;;;5043811;28;20375;-69
2022/01/23 03:44:08;;;;;;;;;;;;;;;;;;5046294;28;19921;-70
2022/01/23 03:47:00;;;;;;;;;;;;;;;;;;5047878;28;19974;-69
2022/01/23 03:49:32;;;;;;;;;;;;;;;;;;5043948;28;19978;-69
2022/01/23 03:51:59;;;;;;;;;;;;;;;;;;5045782;28;19967;-68
2022/01/23 03:54:27;;;;;;;;;;;;;;;;;;5047095;28;19924;-69
2022/01/23 03:56:57;;;;;;;;;;;;;;;;;;5044944;28;20064;-69
2022/01/23 03:59:24;;;;;;;;;;;;;;;;;;5041411;28;19946;-69
2022/01/23 04:01:50;;;;;;;;;;;;;;;;;;5048318;28;19974;-69
2022/01/23 04:07:03;;;;;;;;;;;;;;;;;;5046265;28;19921;-69
2022/01/23 04:09:29;;;;;;;;;;;;;;;;;;5047357;28;19975;-67
2022/01/23 04:11:57;;;;;;;;;;;;;;;;;;5045599;28;19925;-68
2022/01/23 04:14:25;;;;;;;;;;;;;;;;;;5040963;28;20378;-68
2022/01/23 04:19:34;;;;;;;;;;;;;;;;;;5046220;28;19920;-68
2022/01/23 04:48:09;;;;;;;;;;;;;;;;;;5022766;28;20142;-70
2022/01/23 05:01:06;;;;;;;;;;;;;;;;;;5040924;28;19924;-71
2022/01/23 05:06:26;;;;;;;;;;;;;;;;;;5043172;28;19975;-70
2022/01/23 05:08:52;;;;;;;;;;;;;;;;;;5044992;28;19990;-71
2022/01/23 05:11:21;;;;;;;;;;;;;;;;;;5046253;28;19921;-71
2022/01/23 05:13:48;;;;;;;;;;;;;;;;;;5042183;28;20291;-71
2022/01/23 05:16:14;;;;;;;;;;;;;;;;;;5046552;28;19920;-69
2022/01/23 05:18:41;;;;;;;;;;;;;;;;;;5040757;28;19925;-71
2022/01/23 05:21:43;;;;;;;;;;;;;;;;;;5039830;28;19924;-67
2022/01/23 05:23:54;;;;;;;;;;;;;;;;;;5042416;28;20379;-70
2022/01/23 05:26:21;;;;;;;;;;;;;;;;;;5044066;28;20515;-70
2022/01/23 05:28:47;;;;;;;;;;;;;;;;;;5045873;28;19924;-70
2022/01/23 05:31:14;;;;;;;;;;;;;;;;;;5043757;28;19975;-70
2022/01/23 05:33:41;;;;;;;;;;;;;;;;;;5039038;28;19971;-71
2022/01/23 05:36:07;;;;;;;;;;;;;;;;;;5043778;28;20379;-70
2022/01/23 05:38:34;;;;;;;;;;;;;;;;;;5045585;28;19972;-71
2022/01/23 05:41:01;;;;;;;;;;;;;;;;;;5044412;28;19968;-70
2022/01/23 05:43:28;;;;;;;;;;;;;;;;;;5045319;28;20334;-70
2022/01/23 05:45:55;;;;;;;;;;;;;;;;;;5043731;28;20311;-71
2022/01/23 05:48:21;;;;;;;;;;;;;;;;;;5044907;28;19975;-71
2022/01/23 05:50:48;;;;;;;;;;;;;;;;;;5044273;28;19925;-70
2022/01/23 05:53:14;;;;;;;;;;;;;;;;;;5044945;28;19975;-71
2022/01/23 05:55:41;;;;;;;;;;;;;;;;;;5040578;28;19925;-71
2022/01/23 05:58:07;;;;;;;;;;;;;;;;;;5039079;28;19968;-71
2022/01/23 06:00:34;;;;;;;;;;;;;;;;;;5041902;28;19921;-71
2022/01/23 06:03:00;;;;;;;;;;;;;;;;;;5042655;28;19925;-71
2022/01/23 06:05:27;;;;;;;;;;;;;;;;;;5040991;28;19970;-71
2022/01/23 06:07:53;;;;;;;;;;;;;;;;;;5043107;28;19967;-72
2022/01/23 06:10:25;;;;;;;;;;;;;;;;;;5045425;28;19921;-71
2022/01/23 06:12:52;;;;;;;;;;;;;;;;;;5048235;28;20327;-71
2022/01/23 06:15:18;;;;;;;;;;;;;;;;;;5040723;28;19921;-69
2022/01/23 06:17:45;;;;;;;;;;;;;;;;;;5037857;28;20049;-71
2022/01/23 06:20:13;;;;;;;;;;;;;;;;;;5044633;28;20338;-71
2022/01/23 06:22:42;;;;;;;;;;;;;;;;;;5043939;28;19925;-71
2022/01/23 06:25:10;;;;;;;;;;;;;;;;;;5044742;28;19978;-71
2022/01/23 06:27:37;;;;;;;;;;;;;;;;;;5039300;28;19921;-70
2022/01/23 06:30:04;;;;;;;;;;;;;;;;;;5043969;28;19929;-70
2022/01/23 06:32:30;;;;;;;;;;;;;;;;;;5043205;28;20421;-71
2022/01/23 06:34:56;;;;;;;;;;;;;;;;;;5043305;28;19951;-70
2022/01/23 06:37:23;;;;;;;;;;;;;;;;;;5041560;28;19974;-70
2022/01/23 06:39:50;;;;;;;;;;;;;;;;;;5042438;28;19955;-70
2022/01/23 06:42:17;;;;;;;;;;;;;;;;;;5045098;28;19928;-70
2022/01/23 06:44:43;;;;;;;;;;;;;;;;;;5042415;28;19950;-70
2022/01/23 06:47:10;;;;;;;;;;;;;;;;;;5042816;28;19925;-70
2022/01/23 06:49:36;;;;;;;;;;;;;;;;;;5042207;28;19966;-70
2022/01/23 06:52:03;;;;;;;;;;;;;;;;;;5044539;28;19921;-70
2022/01/23 06:54:29;;;;;;;;;;;;;;;;;;5042409;28;19995;-70
2022/01/23 06:56:56;;;;;;;;;;;;;;;;;;5037922;28;19967;-70
2022/01/23 06:59:23;;;;;;;;;;;;;;;;;;5041107;28;19920;-71
2022/01/23 07:01:49;;;;;;;;;;;;;;;;;;5039672;28;19921;-71
2022/01/23 07:04:18;;;;;;;;;;;;;;;;;;5040705;28;19928;-70
2022/01/23 07:06:45;;;;;;;;;;;;;;;;;;5044060;28;19921;-71
2022/01/23 07:09:11;;;;;;;;;;;;;;;;;;5042890;28;19925;-70
2022/01/23 07:11:38;;;;;;;;;;;;;;;;;;5040653;28;19925;-71
2022/01/23 07:14:04;;;;;;;;;;;;;;;;;;5041235;28;20326;-70
2022/01/23 07:16:31;;;;;;;;;;;;;;;;;;5043979;28;19927;-71
2022/01/23 07:18:58;;;;;;;;;;;;;;;;;;5042505;28;20287;-70
2022/01/23 07:21:24;;;;;;;;;;;;;;;;;;5042001;28;20356;-71
2022/01/23 07:23:51;;;;;;;;;;;;;;;;;;5045279;28;20050;-70
2022/01/23 07:26:20;;;;;;;;;;;;;;;;;;5037912;28;19975;-70
2022/01/23 07:28:47;;;;;;;;;;;;;;;;;;5037629;28;19920;-70
2022/01/23 07:31:31;;;;;;;;;;;;;;;;;;5042268;28;19967;-71
2022/01/23 07:33:58;;;;;;;;;;;;;;;;;;5042528;28;19960;-70
2022/01/23 07:36:25;;;;;;;;;;;;;;;;;;5041590;28;19932;-70
2022/01/23 07:38:51;;;;;;;;;;;;;;;;;;5039641;28;20349;-70
2022/01/23 07:41:17;;;;;;;;;;;;;;;;;;5041864;28;20449;-68
2022/01/23 07:43:44;;;;;;;;;;;;;;;;;;5040823;28;20434;-69
2022/01/23 07:46:12;;;;;;;;;;;;;;;;;;5033349;28;20026;-70
2022/01/23 07:48:38;;;;;;;;;;;;;;;;;;5039977;28;19924;-69
2022/01/23 07:51:05;;;;;;;;;;;;;;;;;;5043762;28;19974;-70
2022/01/23 07:53:31;;;;;;;;;;;;;;;;;;5036072;28;19924;-68
2022/01/23 07:55:58;;;;;;;;;;;;;;;;;;5043642;28;19921;-69
2022/01/23 07:58:24;;;;;;;;;;;;;;;;;;5045008;28;19921;-71
2022/01/23 08:00:50;;;;;;;;;;;;;;;;;;5042414;28;19921;-72
2022/01/23 08:03:17;;;;;;;;;;;;;;;;;;5044227;28;19925;-71
2022/01/23 08:05:44;;;;;;;;;;;;;;;;;;5046000;28;19967;-69
2022/01/23 08:08:10;;;;;;;;;;;;;;;;;;5045814;28;20380;-71
2022/01/23 08:10:37;;;;;;;;;;;;;;;;;;5040917;28;20313;-69
2022/01/23 08:13:03;;;;;;;;;;;;;;;;;;5042007;28;20249;-70
2022/01/23 08:15:30;;;;;;;;;;;;;;;;;;5045900;28;20437;-71
2022/01/23 08:18:03;;;;;;;;;;;;;;;;;;5049742;28;19920;-71
2022/01/23 08:20:30;;;;;;;;;;;;;;;;;;5042881;28;19982;-70
2022/01/23 08:22:59;;;;;;;;;;;;;;;;;;5043551;28;19975;-71
2022/01/23 08:25:25;;;;;;;;;;;;;;;;;;5046809;28;19921;-71
2022/01/23 08:27:52;;;;;;;;;;;;;;;;;;5054991;28;19921;-71
2022/01/23 08:30:18;;;;;;;;;;;;;;;;;;5051878;28;19929;-71
2022/01/23 08:32:44;;;;;;;;;;;;;;;;;;5052315;28;19951;-69
2022/01/23 08:35:11;;;;;;;;;;;;;;;;;;5053297;28;19925;-70
2022/01/23 08:37:37;;;;;;;;;;;;;;;;;;5058669;28;19928;-70
2022/01/23 08:40:15;;;;;;;;;;;;;;;;;;5048528;28;19921;-70
2022/01/23 08:42:42;;;;;;;;;;;;;;;;;;5046600;28;19924;-70
2022/01/23 08:45:08;;;;;;;;;;;;;;;;;;5050506;28;20100;-72
2022/01/23 08:47:35;;;;;;;;;;;;;;;;;;5047343;28;20367;-71
2022/01/23 08:50:02;;;;;;;;;;;;;;;;;;5050913;28;19947;-71
2022/01/23 08:52:29;;;;;;;;;;;;;;;;;;5049740;28;19929;-69
2022/01/23 08:54:56;;;;;;;;;;;;;;;;;;5047382;28;20430;-70
2022/01/23 08:57:23;;;;;;;;;;;;;;;;;;5045083;28;19979;-70
2022/01/23 08:59:50;;;;;;;;;;;;;;;;;;5045189;28;19928;-70
2022/01/23 09:02:17;;;;;;;;;;;;;;;;;;5043051;28;19967;-69
2022/01/23 09:04:44;;;;;;;;;;;;;;;;;;5043934;28;19924;-68
2022/01/23 09:07:10;;;;;;;;;;;;;;;;;;5043357;28;19998;-69
2022/01/23 09:09:39;;;;;;;;;;;;;;;;;;5043622;28;20456;-70
2022/01/23 09:12:25;;;;;;;;;;;;;;;;;;5043297;28;19924;-71
2022/01/23 09:14:51;;;;;;;;;;;;;;;;;;5042841;28;19925;-71
2022/01/23 09:17:17;;;;;;;;;;;;;;;;;;5044124;28;19921;-69
2022/01/23 09:19:48;;;;;;;;;;;;;;;;;;5042277;28;19921;-69
2022/01/23 09:22:15;;;;;;;;;;;;;;;;;;5041788;28;20371;-70
2022/01/23 09:24:41;;;;;;;;;;;;;;;;;;5039946;28;19951;-69
2022/01/23 09:27:13;;;;;;;;;;;;;;;;;;5040139;28;19987;-68
2022/01/23 09:29:42;;;;;;;;;;;;;;;;;;5035405;28;19979;-69
2022/01/23 09:32:13;;;;;;;;;;;;;;;;;;5037012;28;19925;-70
2022/01/23 09:34:40;;;;;;;;;;;;;;;;;;5050136;28;19978;-68
2022/01/23 09:37:08;;;;;;;;;;;;;;;;;;5046123;28;20430;-68
2022/01/23 09:39:34;;;;;;;;;;;;;;;;;;5051593;28;19925;-67
2022/01/23 09:42:01;;;;;;;;;;;;;;;;;;5052143;28;19921;-68
2022/01/23 09:44:30;;;;;;;;;;;;;;;;;;5051235;28;19971;-70
2022/01/23 09:46:57;;;;;;;;;;;;;;;;;;5056386;28;19924;-68
2022/01/23 09:49:24;;;;;;;;;;;;;;;;;;5055803;28;19917;-70
2022/01/23 09:51:51;;;;;;;;;;;;;;;;;;5051005;28;19920;-68
2022/01/23 09:54:18;;;;;;;;;;;;;;;;;;5038614;28;19924;-71
2022/01/23 09:56:44;;;;;;;;;;;;;;;;;;5037063;28;19920;-68
2022/01/23 09:59:11;;;;;;;;;;;;;;;;;;5040940;28;19970;-68
2022/01/23 10:01:39;;;;;;;;;;;;;;;;;;5040729;28;19955;-68
2022/01/23 10:04:06;;;;;;;;;;;;;;;;;;5038138;28;19944;-68
2022/01/23 10:06:32;;;;;;;;;;;;;;;;;;5042770;28;19931;-70
2022/01/23 10:08:59;;;;;;;;;;;;;;;;;;5045309;28;20387;-68
2022/01/23 10:11:29;;;;;;;;;;;;;;;;;;5043190;28;19932;-69
2022/01/23 10:13:55;;;;;;;;;;;;;;;;;;5037733;28;19929;-68
2022/01/23 10:16:22;;;;;;;;;;;;;;;;;;4946476;28;19934;-72
2022/01/23 10:19:52;;;;;;;;;;;;;;;;;;5075861;27;19924;-72
2022/01/23 10:22:18;;;;;;;;;;;;;;;;;;5085972;28;19986;-72
2022/01/23 10:24:45;;;;;;;;;;;;;;;;;;5082871;28;19928;-69
2022/01/23 10:27:11;;;;;;;;;;;;;;;;;;5085871;28;19928;-71
2022/01/23 10:29:43;;;;;;;;;;;;;;;;;;5085042;28;19928;-71
2022/01/23 10:32:14;;;;;;;;;;;;;;;;;;5084989;28;19928;-69
2022/01/23 10:34:40;;;;;;;;;;;;;;;;;;5084757;28;19932;-71
2022/01/23 10:37:07;;;;;;;;;;;;;;;;;;5085251;28;19928;-69
2022/01/23 10:49:49;;;;;;;;;;;;;;;;;;5049992;28;19932;-68
2022/01/23 10:52:24;;;;;;;;;;;;;;;;;;5034418;28;19971;-68
2022/01/23 10:54:50;;;;;;;;;;;;;;;;;;5032428;28;19925;-69
2022/01/23 10:57:17;;;;;;;;;;;;;;;;;;5033938;28;19937;-68
2022/01/23 10:59:47;;;;;;;;;;;;;;;;;;5036868;28;19983;-70
2022/01/23 11:02:15;;;;;;;;;;;;;;;;;;5035804;28;19925;-70
2022/01/23 11:05:01;;;;;;;;;;;;;;;;;;5032613;28;19926;-69
2022/01/23 11:07:28;;;;;;;;;;;;;;;;;;5032244;28;19929;-71
2022/01/23 11:10:01;;;;;;;;;;;;;;;;;;5051174;28;19933;-71
2022/01/23 11:17:21;;;;;;;;;;;;;;;;;;5031604;28;19929;-68
2022/01/23 11:18:31;;;;;;;;;;;;;;;;;;5036480;28;19925;-72
2022/01/23 11:20:58;;;;;;;;;;;;;;;;;;5034711;28;19929;-68
2022/01/23 11:23:27;;;;;;;;;;;;;;;;;;5032331;28;19983;-70
2022/01/23 11:25:56;;;;;;;;;;;;;;;;;;5040745;28;19925;-70
2022/01/23 11:28:29;;;;;;;;;;;;;;;;;;5037487;28;20307;-70
2022/01/23 11:30:55;;;;;;;;;;;;;;;;;;5038446;28;19929;-70
2022/01/23 11:33:22;;;;;;;;;;;;;;;;;;5063642;28;20388;-71
2022/01/23 11:35:49;;;;;;;;;;;;;;;;;;5033765;28;19933;-71
2022/01/23 11:38:18;;;;;;;;;;;;;;;;;;5030895;28;19976;-71
2022/01/23 11:54:42;;;;;;;;;;;;;;;;;;5021325;28;19951;-69
2022/01/23 11:57:27;;;;;;;;;;;;;;;;;;5021093;28;20381;-71
2022/01/23 11:59:54;;;;;;;;;;;;;;;;;;5022683;28;19933;-72
2022/01/23 12:02:26;;;;;;;;;;;;;;;;;;5050562;28;19925;-71
2022/01/23 12:05:12;;;;;;;;;;;;;;;;;;5022460;28;19971;-71
2022/01/23 12:07:40;;;;;;;;;;;;;;;;;;5019565;28;19932;-71
2022/01/23 12:10:17;;;;;;;;;;;;;;;;;;5017254;28;20365;-72
2022/01/23 12:12:46;;;;;;;;;;;;;;;;;;5021825;28;19987;-69
2022/01/23 12:18:12;;;;;;;;;;;;;;;;;;5020187;28;19925;-71
2022/01/23 12:20:39;;;;;;;;;;;;;;;;;;5022461;28;19971;-71
2022/01/23 12:23:06;;;;;;;;;;;;;;;;;;5021572;28;19925;-71
2022/01/23 12:25:40;;;;;;;;;;;;;;;;;;5018641;28;20640;-72
2022/01/23 12:28:08;;;;;;;;;;;;;;;;;;5019845;28;19941;-72
2022/01/23 12:30:34;;;;;;;;;;;;;;;;;;5018920;28;20282;-71
2022/01/23 12:33:08;;;;;;;;;;;;;;;;;;5018102;28;20012;-72
2022/01/23 12:35:39;;;;;;;;;;;;;;;;;;5018186;28;19944;-72
2022/01/23 12:38:06;;;;;;;;;;;;;;;;;;5018649;28;19979;-72
2022/01/23 12:40:34;;;;;;;;;;;;;;;;;;5020386;28;19991;-72
2022/01/23 12:43:11;;;;;;;;;;;;;;;;;;5021931;28;20288;-72
2022/01/23 12:45:46;;;;;;;;;;;;;;;;;;5022891;28;19979;-72
2022/01/23 12:48:25;;;;;;;;;;;;;;;;;;5018086;28;20190;-72
2022/01/23 12:50:53;;;;;;;;;;;;;;;;;;5020955;28;19983;-70
2022/01/23 12:53:19;;;;;;;;;;;;;;;;;;5018480;28;19929;-72
2022/01/23 12:56:04;;;;;;;;;;;;;;;;;;5017327;28;20351;-71
2022/01/23 12:58:34;;;;;;;;;;;;;;;;;;5023392;28;20355;-71
2022/01/23 13:01:01;;;;;;;;;;;;;;;;;;5023078;28;19933;-72
2022/01/23 13:03:28;;;;;;;;;;;;;;;;;;5030837;28;20400;-71
2022/01/23 13:05:55;;;;;;;;;;;;;;;;;;5019034;28;19925;-73
2022/01/23 13:08:32;;;;;;;;;;;;;;;;;;5020685;28;20263;-71
2022/01/23 13:13:49;;;;;;;;;;;;;;;;;;5018784;28;19929;-72
2022/01/23 13:19:12;;;;;;;;;;;;;;;;;;5047413;28;19930;-73
2022/01/23 13:30:20;;;;;;;;;;;;;;;;;;5023786;28;19929;-71
2022/01/23 13:32:49;;;;;;;;;;;;;;;;;;5021030;28;19925;-70
2022/01/23 13:35:17;;;;;;;;;;;;;;;;;;5018817;28;19926;-70
2022/01/23 13:37:47;;;;;;;;;;;;;;;;;;5018520;28;19949;-70
2022/01/23 13:40:20;;;;;;;;;;;;;;;;;;5018969;28;19929;-70
2022/01/23 13:49:17;;;;;;;;;;;;;;;;;;5021219;28;20372;-71
2022/01/23 14:02:17;;;;;;;;;;;;;;;;;;5019875;28;19955;-71
2022/01/23 14:05:04;;;;;;;;;;;;;;;;;;5020143;28;19934;-70
2022/01/23 14:07:30;;;;;;;;;;;;;;;;;;5016993;28;20003;-71
2022/01/23 14:10:16;;;;;;;;;;;;;;;;;;5017113;28;19994;-71
2022/01/23 14:12:43;;;;;;;;;;;;;;;;;;5020298;28;19983;-70
2022/01/23 14:15:17;;;;;;;;;;;;;;;;;;5016479;28;19933;-71
2022/01/23 14:18:04;;;;;;;;;;;;;;;;;;5019326;28;20346;-71
2022/01/23 14:20:32;;;;;;;;;;;;;;;;;;5018690;28;20011;-70
2022/01/23 14:23:08;;;;;;;;;;;;;;;;;;5016634;28;19933;-70
2022/01/23 14:25:34;;;;;;;;;;;;;;;;;;5018502;28;19964;-69
2022/01/23 14:28:13;;;;;;;;;;;;;;;;;;5035469;28;19926;-70
2022/01/23 14:30:44;;;;;;;;;;;;;;;;;;5018146;28;20630;-70
2022/01/23 14:33:15;;;;;;;;;;;;;;;;;;5016327;28;19925;-71
2022/01/23 14:35:41;;;;;;;;;;;;;;;;;;5016975;28;19930;-71
2022/01/23 14:38:15;;;;;;;;;;;;;;;;;;5013716;28;19933;-70
2022/01/23 14:40:52;;;;;;;;;;;;;;;;;;5021255;28;19932;-71
2022/01/23 14:43:19;;;;;;;;;;;;;;;;;;5017461;28;19979;-70
2022/01/23 14:45:46;;;;;;;;;;;;;;;;;;5016470;28;19984;-70
2022/01/23 14:48:13;;;;;;;;;;;;;;;;;;5016856;28;19971;-70
2022/01/23 14:50:41;;;;;;;;;;;;;;;;;;5018038;28;19925;-69
2022/01/23 14:53:09;;;;;;;;;;;;;;;;;;5018087;28;20312;-70
2022/01/23 14:55:36;;;;;;;;;;;;;;;;;;5015427;28;19952;-69
2022/01/23 14:58:03;;;;;;;;;;;;;;;;;;5018137;28;19929;-69
2022/01/23 15:00:33;;;;;;;;;;;;;;;;;;5018668;28;19925;-69
2022/01/23 15:03:03;;;;;;;;;;;;;;;;;;5016913;28;19929;-69
2022/01/23 15:05:33;;;;;;;;;;;;;;;;;;5016053;28;20292;-69
2022/01/23 15:08:00;;;;;;;;;;;;;;;;;;5016113;28;19956;-69
2022/01/23 15:10:28;;;;;;;;;;;;;;;;;;5016810;28;20359;-69
2022/01/23 15:12:55;;;;;;;;;;;;;;;;;;5015300;28;19929;-68
2022/01/23 15:15:21;;;;;;;;;;;;;;;;;;5017405;28;20019;-69
2022/01/23 15:17:48;;;;;;;;;;;;;;;;;;5015253;28;20230;-69
2022/01/23 15:20:14;;;;;;;;;;;;;;;;;;5017776;28;19992;-68
2022/01/23 15:24:34;;;;;;;2.65;1.98;;;;;;;;;;5075187;28;20134;-69
2022/01/23 15:27:01;;;;;;;3.15;1.88;;;;;;;;;;5063948;28;20106;-68
2022/01/23 15:29:28;;;;;;;4.43;2.13;;;;;;;;;;5055378;28;20049;-67
2022/01/23 15:31:54;;;;;;;2.83;2.08;;;;;;;;;;5054516;28;20107;-68
2022/01/23 15:34:21;;;;;;;2.08;1.70;;;;;;;;;;5052118;28;20114;-68
2022/01/23 15:36:50;;;;;;;2.10;1.63;;;;;;;;;;5054204;28;20062;-68
2022/01/23 15:39:17;;;;;;;2.22;1.80;;;;;;;;;;5050845;28;20049;-68
2022/01/23 15:41:43;;;;;;;1.75;1.33;;;;;;;;;;5054225;28;20444;-68
2022/01/23 15:44:10;;;;;;;2.60;1.75;;;;;;;;;;5052043;28;20462;-68
2022/01/23 15:46:37;;;;;;;2.53;1.63;;;;;;;;;;5052868;28;20425;-68
2022/01/23 15:49:05;;;;;;;2.55;1.60;;;;;;;;;;5052484;28;20053;-68
2022/01/23 15:51:32;;;;;;;2.30;1.88;;;;;;;;;;5052393;28;20053;-68
2022/01/23 15:53:58;;;;;;;2.30;1.83;;;;;;;;;;5054598;28;20129;-68
2022/01/23 15:56:25;;;;;;;2.58;1.88;;;;;;;;;;5051907;28;20114;-68
2022/01/23 15:58:52;;;;;;;2.88;2.35;;;;;;;;;;5057125;28;20045;-69
2022/01/23 16:01:18;;;;;;;2.97;1.88;;;;;;;;;;5051530;28;20151;-69
2022/01/23 16:03:45;;;;;;;1.85;1.58;;;;;;;;;;5052365;28;20080;-68
2022/01/23 16:06:13;;;;;;;2.40;1.80;;;;;;;;;;5047862;28;20052;-68
2022/01/23 16:08:39;;;;;;;2.47;1.95;;;;;;;;;;5054261;28;20751;-68
2022/01/23 16:11:07;;;;;;;3.13;2.28;;;;;;;;;;5051177;28;20107;-68
2022/01/23 16:13:34;;;;;;;2.00;1.80;;;;;;;;;;5051221;28;20083;-68
2022/01/23 16:16:00;;;;;;;3.42;1.80;;;;;;;;;;5051431;28;20059;-68
2022/01/23 16:18:27;;;;;;;2.28;1.70;;;;;;;;;;5054268;28;20068;-68
2022/01/23 16:20:54;;;;;;;2.25;1.88;;;;;;;;;;4987210;28;20054;-69
2022/01/23 16:23:20;;;;;;;2.17;1.70;;;;;;;;;;4978257;28;20094;-69
2022/01/23 16:26:07;;;;;;;2.80;1.98;;;;;;;;;;4977801;28;20062;-68
2022/01/23 16:28:34;;;;;;;2.67;1.77;;;;;;;;;;4975301;28;20085;-67
2022/01/23 16:31:01;;;;;;;2.65;1.80;;;;;;;;;;4981595;28;20043;-67
2022/01/23 16:33:28;;;;;;;2.45;1.80;;;;;;;;;;4973582;28;20051;-68
2022/01/23 16:35:55;;;;;;;3.40;2.00;;;;;;;;;;4964464;28;20494;-68
2022/01/23 16:38:22;;;;;;;3.22;2.10;;;;;;;;;;4967137;28;20565;-67
2022/01/23 16:40:54;;;;;;;3.53;2.03;;;;;;;;;;4977550;28;20074;-68
2022/01/23 16:43:23;;;;;;;3.53;2.00;;;;;;;;;;4964135;28;20441;-67
2022/01/23 16:45:53;;;;;;;3.60;2.22;;;;;;;;;;4961318;28;20418;-67
2022/01/23 16:48:21;;;;;;;3.33;1.98;;;;;;;;;;4969137;28;20050;-67
2022/01/23 16:50:53;;;;;;;3.47;2.08;;;;;;;;;;4961658;28;20082;-68
2022/01/23 16:53:20;;;;;;;4.68;2.50;;;;;;;;;;4963972;28;20043;-67
2022/01/23 16:55:46;;;;;;;4.97;2.58;;;;;;;;;;4961832;28;20055;-66
2022/01/23 16:58:13;;;;;;;5.13;2.55;;;;;;;;;;4963325;28;20110;-67
2022/01/23 17:00:39;;;;;;;3.45;2.17;;;;;;;;;;4962871;28;20059;-68
2022/01/23 17:03:07;;;;;;;4.55;3.42;;;;;;;;;;4961561;28;20113;-68
2022/01/23 17:05:34;;;;;;;3.65;2.50;;;;;;;;;;4962669;28;20218;-68
2022/01/23 17:08:01;;;;;;;3.80;2.80;;;;;;;;;;4964611;28;20054;-68
2022/01/23 17:10:28;;;;;;;3.85;2.90;;;;;;;;;;4964240;28;20048;-69
2022/01/23 17:12:54;;;;;;;5.20;3.65;;;;;;;;;;4962175;28;20043;-68
2022/01/23 17:15:21;;;;;;;5.32;2.42;;;;;;;;;;4961250;28;20078;-68
2022/01/23 17:17:48;;;;;;;3.35;2.50;;;;;;;;;;4967113;28;20734;-69
2022/01/23 17:20:14;;;;;;;3.58;2.60;;;;;;;;;;4962578;28;20489;-69
2022/01/23 17:22:41;;;;;;;3.70;2.67;;;;;;;;;;4960383;28;20051;-68
2022/01/23 17:25:08;;;;;;;3.22;2.28;;;;;;;;;;4962585;28;20638;-69
2022/01/23 17:27:34;;;;;;;4.97;2.58;;;;;;;;;;4959091;28;20109;-71
2022/01/23 17:30:02;;;;;;;2.92;2.03;;;;;;;;;;4962046;28;20109;-75
2022/01/23 17:32:28;;;;;;;4.50;2.72;;;;;;;;;;4990004;28;20125;-69
2022/01/23 17:35:12;;;;;;;3.65;3.00;;;;;;;;;;4960190;28;20442;-68
2022/01/23 17:37:40;;;;;;;3.67;2.85;;;;;;;;;;4967091;28;20106;-70
2022/01/23 17:40:08;;;;;;;4.72;3.15;;;;;;;;;;4962267;28;20059;-69
2022/01/23 17:42:34;;;;;;;6.13;3.00;;;;;;;;;;4974041;28;20427;-69
2022/01/23 17:45:01;;;;;;;3.58;3.00;;;;;;;;;;4959491;28;20051;-69
2022/01/23 17:50:14;;;;;;;5.20;3.47;;;;;;;;;;4962244;28;20055;-69
2022/01/23 17:52:43;;;;;;;6.13;3.30;;;;;;;;;;4959428;28;20557;-69
2022/01/23 17:55:10;;;;;;;3.63;2.80;;;;;;;;;;4962175;28;20039;-69
2022/01/23 17:57:37;;;;;;;4.82;3.33;;;;;;;;;;4961793;28;20114;-69
2022/01/23 18:00:04;;;;;;;5.22;3.65;;;;;;;;;;4964783;28;20098;-70
2022/01/23 18:02:31;;;;;;;6.00;4.20;;;;;;;;;;4974455;28;20051;-70
2022/01/23 18:04:58;;;;;;;4.93;4.00;;;;;;;;;;4960502;28;20422;-69
2022/01/23 18:07:24;;;;;;;6.40;4.40;;;;;;;;;;4959625;28;20105;-69
2022/01/23 18:09:53;;;;;;;5.97;3.83;;;;;;;;;;4958293;28;20055;-70
2022/01/23 18:12:20;;;;;;;6.18;4.15;;;;;;;;;;4960191;28;20054;-69
2022/01/23 18:14:48;;;;;;;5.93;3.53;;;;;;;;;;4957645;28;20051;-69
2022/01/23 18:17:15;;;;;;;5.60;3.78;;;;;;;;;;4961345;28;20058;-70
2022/01/23 18:19:42;;;;;;;5.55;4.00;;;;;;;;;;4957153;28;20138;-70
2022/01/23 18:22:08;;;;;;;4.38;3.03;;;;;;;;;;4974127;28;20046;-69
2022/01/23 18:24:35;;;;;;;5.90;3.55;;;;;;;;;;4958534;28;20455;-69
2022/01/23 18:27:02;;;;;;;4.97;3.58;;;;;;;;;;4960588;28;20051;-69
2022/01/23 18:29:28;;;;;;;7.63;4.60;;;;;;;;;;4974392;28;20466;-69
2022/01/23 18:31:55;;;;;;;5.50;3.97;;;;;;;;;;4959568;28;20050;-69
2022/01/23 18:34:22;;;;;;;5.32;3.47;;;;;;;;;;4966269;28;20043;-69
2022/01/23 18:36:49;;;;;;;6.18;4.10;;;;;;;;;;4959983;28;20046;-69
2022/01/23 18:39:15;;;;;;;6.07;3.70;;;;;;;;;;4959940;28;20156;-69
2022/01/23 18:41:42;;;;;;;6.47;4.10;;;;;;;;;;4958651;28;20059;-69
2022/01/23 18:44:09;;;;;;;6.00;4.05;;;;;;;;;;4958170;28;20106;-68
2022/01/23 18:46:36;;;;;;;7.72;5.43;;;;;;;;;;4968130;28;20057;-69
2022/01/23 18:49:03;;;;;;;6.72;4.75;;;;;;;;;;4971375;28;20133;-69
2022/01/23 18:51:36;;;;;;;7.03;4.63;;;;;;;;;;4957312;28;20051;-68
2022/01/23 18:57:08;;;;;;;7.10;4.28;;;;;;;;;;4947066;28;20047;-68
2022/01/23 18:59:44;;;;;;;8.23;4.60;;;;;;;;;;4963386;28;20481;-70
2022/01/23 19:02:14;;;;;;;9.05;5.38;;;;;;;;;;4967302;28;20046;-69
2022/01/23 19:04:46;;;;;;;7.22;4.80;;;;;;;;;;4961032;28;20059;-69
2022/01/23 19:07:36;;;;;;;5.67;4.27;;;;;;;;;;4957548;28;20565;-70
2022/01/23 19:10:04;;;;;;;6.82;5.10;;;;;;;;;;4982136;28;20063;-67
2022/01/23 19:12:34;;;;;;;6.80;4.28;;;;;;;;;;4957447;28;20109;-66
2022/01/23 19:15:05;;;;;;;5.50;3.92;;;;;;;;;;4961252;28;20066;-68
2022/01/23 19:17:31;;;;;;;6.22;4.32;;;;;;;;;;4959015;28;20119;-68
2022/01/23 19:20:00;;;;;;;8.38;4.93;;;;;;;;;;4958233;28;20054;-68
2022/01/23 19:22:27;;;;;;;6.32;4.60;;;;;;;;;;4956688;28;20058;-68
2022/01/23 19:24:53;;;;;;;6.47;4.47;;;;;;;;;;4956541;28;20097;-70
2022/01/23 19:27:26;;;;;;;6.07;3.97;;;;;;;;;;4964105;28;20046;-68
2022/01/23 19:29:53;;;;;;;5.40;4.05;;;;;;;;;;4958619;28;20043;-68
2022/01/23 19:32:20;;;;;;;5.05;3.55;;;;;;;;;;4956841;28;20047;-69
2022/01/23 19:34:46;;;;;;;5.53;4.30;;;;;;;;;;4958587;28;20043;-68
2022/01/23 19:37:13;;;;;;;6.40;4.07;;;;;;;;;;4962053;28;20107;-68
2022/01/23 19:39:41;;;;;;;6.00;3.40;;;;;;;;;;4958074;28;20055;-68